Time,TemperatureF,DewpointF,PressureIn,WindDirection,WindDirectionDegrees,WindSpeedMPH,WindSpeedGustMPH,Humidity,HourlyPrecipIn,Conditions,Clouds,dailyrainin,SoftwareType,DateUTC
2013-06-21 00:13:00,54.4,28.0,29.58,SE,128,13.0,-999.0,37,-99.99,,,0.00,weatherlink.com 1.10,2013-06-21 06:13:00,
2013-06-21 00:28:00,54.1,28.0,29.57,ESE,109,12.0,-999.0,37,-99.99,,,0.00,weatherlink.com 1.10,2013-06-21 06:28:00,
2013-06-21 00:43:00,54.0,28.0,29.57,SE,141,2.0,-999.0,37,-99.99,,,0.00,weatherlink.com 1.10,2013-06-21 06:43:00,
2013-06-21 00:59:00,54.9,26.0,29.56,SE,134,9.0,-999.0,33,-99.99,,,0.00,weatherlink.com 1.10,2013-06-21 06:59:00,
2013-06-21 01:14:00,54.8,26.0,29.56,SE,142,13.0,-999.0,33,-99.99,,,0.00,weatherlink.com 1.10,2013-06-21 07:14:00,
2013-06-21 01:29:00,54.1,25.0,29.55,South,169,7.0,-999.0,33,-99.99,,,0.00,weatherlink.com 1.10,2013-06-21 07:29:00,
2013-06-21 01:44:00,53.8,25.0,29.56,SSE,155,7.0,-999.0,33,-99.99,,,0.00,weatherlink.com 1.10,2013-06-21 07:44:00,
2013-06-21 01:59:00,54.1,25.0,29.55,SSE,154,11.0,-999.0,32,-99.99,,,0.00,weatherlink.com 1.10,2013-06-21 07:59:00,
2013-06-21 02:14:00,54.6,24.0,29.55,South,189,7.0,-999.0,31,-99.99,,,0.00,weatherlink.com 1.10,2013-06-21 08:14:00,
2013-06-21 02:30:00,54.8,21.0,29.55,South,184,10.0,-999.0,27,-99.99,,,0.00,weatherlink.com 1.10,2013-06-21 08:30:00,
2013-06-21 02:45:00,55.2,21.0,29.55,South,188,10.0,-999.0,26,-99.99,,,0.00,weatherlink.com 1.10,2013-06-21 08:45:00,
2013-06-21 03:00:00,54.6,20.0,29.55,South,185,10.0,-999.0,26,-99.99,,,0.00,weatherlink.com 1.10,2013-06-21 09:00:00,
2013-06-21 03:15:00,54.1,19.0,29.55,South,190,10.0,-999.0,25,-99.99,,,0.00,weatherlink.com 1.10,2013-06-21 09:15:00,
2013-06-21 03:30:00,53.7,18.0,29.55,South,178,13.0,-999.0,25,-99.99,,,0.00,weatherlink.com 1.10,2013-06-21 09:30:00,
2013-06-21 03:45:00,54.2,18.0,29.54,South,178,14.0,-999.0,24,-99.99,,,0.00,weatherlink.com 1.10,2013-06-21 09:45:00,
2013-06-21 04:00:00,53.2,17.0,29.55,SSE,162,14.0,-999.0,24,-99.99,,,0.00,weatherlink.com 1.10,2013-06-21 10:00:00,
2013-06-21 04:15:00,53.5,16.0,29.55,South,169,13.0,-999.0,23,-99.99,,,0.00,weatherlink.com 1.10,2013-06-21 10:15:00,
2013-06-21 04:31:00,53.7,17.0,29.54,South,183,12.0,-999.0,23,-99.99,,,0.00,weatherlink.com 1.10,2013-06-21 10:31:00,
2013-06-21 04:46:00,53.6,15.0,29.54,South,181,14.0,-999.0,22,-99.99,,,0.00,weatherlink.com 1.10,2013-06-21 10:46:00,
2013-06-21 05:01:00,53.6,13.0,29.54,SSE,166,17.0,-999.0,20,-99.99,,,0.00,weatherlink.com 1.10,2013-06-21 11:01:00,
2013-06-21 05:16:00,53.5,13.0,29.54,SSE,165,21.0,-999.0,20,-99.99,,,0.00,weatherlink.com 1.10,2013-06-21 11:16:00,
2013-06-21 05:31:00,55.0,13.0,29.54,South,172,16.0,-999.0,19,-99.99,,,0.00,weatherlink.com 1.10,2013-06-21 11:31:00,
2013-06-21 05:46:00,54.5,13.0,29.54,South,182,17.0,-999.0,19,-99.99,,,0.00,weatherlink.com 1.10,2013-06-21 11:46:00,
2013-06-21 06:01:00,54.4,13.0,29.55,SSE,167,14.0,-999.0,19,-99.99,,,0.00,weatherlink.com 1.10,2013-06-21 12:01:00,
2013-06-21 06:17:00,54.7,14.0,29.55,South,175,17.0,-999.0,20,-99.99,,,0.00,weatherlink.com 1.10,2013-06-21 12:17:00,
2013-06-21 06:32:00,54.8,14.0,29.54,SSE,163,20.0,-999.0,20,-99.99,,,0.00,weatherlink.com 1.10,2013-06-21 12:32:00,
2013-06-21 06:47:00,55.2,15.0,29.54,South,169,17.0,-999.0,20,-99.99,,,0.00,weatherlink.com 1.10,2013-06-21 12:47:00,
2013-06-21 07:02:00,54.9,14.0,29.54,SSE,165,20.0,-999.0,20,-99.99,,,0.00,weatherlink.com 1.10,2013-06-21 13:02:00,
2013-06-21 07:17:00,55.9,13.0,29.54,South,188,20.0,-999.0,18,-99.99,,,0.00,weatherlink.com 1.10,2013-06-21 13:17:00,
2013-06-21 07:32:00,56.4,13.0,29.55,South,175,24.0,-999.0,18,-99.99,,,0.00,weatherlink.com 1.10,2013-06-21 13:32:00,
2013-06-21 07:48:00,56.6,15.0,29.55,South,174,23.0,-999.0,19,-99.99,,,0.00,weatherlink.com 1.10,2013-06-21 13:48:00,
2013-06-21 08:03:00,56.9,15.0,29.55,South,178,22.0,-999.0,19,-99.99,,,0.00,weatherlink.com 1.10,2013-06-21 14:03:00,
2013-06-21 08:18:00,57.0,15.0,29.55,South,180,18.0,-999.0,19,-99.99,,,0.00,weatherlink.com 1.10,2013-06-21 14:18:00,
2013-06-21 08:33:00,57.1,16.0,29.55,SSW,206,15.0,-999.0,20,-99.99,,,0.00,weatherlink.com 1.10,2013-06-21 14:33:00,
2013-06-21 08:48:00,57.7,17.0,29.55,South,173,15.0,-999.0,20,-99.99,,,0.00,weatherlink.com 1.10,2013-06-21 14:48:00,
2013-06-21 09:03:00,58.1,17.0,29.55,South,184,14.0,-999.0,20,-99.99,,,0.00,weatherlink.com 1.10,2013-06-21 15:03:00,
2013-06-21 09:19:00,59.2,17.0,29.55,South,178,9.0,-999.0,19,-99.99,,,0.00,weatherlink.com 1.10,2013-06-21 15:19:00,
2013-06-21 09:34:00,59.8,15.0,29.54,SSW,195,14.0,-999.0,17,-99.99,,,0.00,weatherlink.com 1.10,2013-06-21 15:34:00,
2013-06-21 09:49:00,60.2,15.0,29.54,SSW,209,12.0,-999.0,17,-99.99,,,0.00,weatherlink.com 1.10,2013-06-21 15:49:00,
2013-06-21 10:04:00,60.3,15.0,29.54,South,189,11.0,-999.0,17,-99.99,,,0.00,weatherlink.com 1.10,2013-06-21 16:04:00,
2013-06-21 10:19:00,60.4,14.0,29.54,SSW,211,16.0,-999.0,16,-99.99,,,0.00,weatherlink.com 1.10,2013-06-21 16:19:00,
2013-06-21 10:35:00,60.6,12.0,29.54,South,180,21.0,-999.0,15,-99.99,,,0.00,weatherlink.com 1.10,2013-06-21 16:35:00,
2013-06-21 10:50:00,60.9,13.0,29.54,SSW,206,11.0,-999.0,15,-99.99,,,0.00,weatherlink.com 1.10,2013-06-21 16:50:00,
2013-06-21 11:20:00,61.5,16.0,29.54,SSE,153,20.0,-999.0,17,-99.99,,,0.00,weatherlink.com 1.10,2013-06-21 17:20:00,
2013-06-21 11:51:00,63.1,11.0,29.54,South,190,29.0,-999.0,13,-99.99,,,0.00,weatherlink.com 1.10,2013-06-21 17:51:00,
2013-06-21 12:06:00,62.8,11.0,29.54,SSW,198,18.0,-999.0,13,-99.99,,,0.00,weatherlink.com 1.10,2013-06-21 18:06:00,
2013-06-21 12:21:00,63.6,12.0,29.54,SSW,196,17.0,-999.0,13,-99.99,,,0.00,weatherlink.com 1.10,2013-06-21 18:21:00,
2013-06-21 12:36:00,64.3,10.0,29.54,South,186,17.0,-999.0,12,-99.99,,,0.00,weatherlink.com 1.10,2013-06-21 18:36:00,
2013-06-21 12:51:00,63.8,10.0,29.55,South,184,26.0,-999.0,12,-99.99,,,0.00,weatherlink.com 1.10,2013-06-21 18:51:00,
2013-06-21 13:06:00,64.4,12.0,29.55,South,169,18.0,-999.0,13,-99.99,,,0.00,weatherlink.com 1.10,2013-06-21 19:06:00,
2013-06-21 13:21:00,65.1,13.0,29.53,SSE,161,25.0,-999.0,13,-99.99,,,0.00,weatherlink.com 1.10,2013-06-21 19:21:00,
2013-06-21 13:37:00,64.4,12.0,29.53,South,186,30.0,-999.0,13,-99.99,,,0.00,weatherlink.com 1.10,2013-06-21 19:37:00,
2013-06-21 13:52:00,65.6,15.0,29.53,SSW,198,19.0,-999.0,14,-99.99,,,0.00,weatherlink.com 1.10,2013-06-21 19:52:00,
2013-06-21 14:07:00,65.0,18.0,29.54,South,189,12.0,-999.0,16,-99.99,,,0.00,weatherlink.com 1.10,2013-06-21 20:07:00,
2013-06-21 14:22:00,65.1,15.0,29.52,SSW,212,21.0,-999.0,14,-99.99,,,0.00,weatherlink.com 1.10,2013-06-21 20:22:00,
2013-06-21 14:37:00,66.0,17.0,29.53,South,177,20.0,-999.0,15,-99.99,,,0.00,weatherlink.com 1.10,2013-06-21 20:37:00,
2013-06-21 14:52:00,66.5,16.0,29.53,South,184,21.0,-999.0,14,-99.99,,,0.00,weatherlink.com 1.10,2013-06-21 20:52:00,
2013-06-21 15:08:00,66.4,17.0,29.52,SSW,195,19.0,-999.0,15,-99.99,,,0.00,weatherlink.com 1.10,2013-06-21 21:08:00,
2013-06-21 15:23:00,67.2,18.0,29.53,South,175,14.0,-999.0,15,-99.99,,,0.00,weatherlink.com 1.10,2013-06-21 21:23:00,
2013-06-21 15:38:00,67.5,15.0,29.52,South,171,18.0,-999.0,13,-99.99,,,0.00,weatherlink.com 1.10,2013-06-21 21:38:00,
2013-06-21 15:53:00,68.3,17.0,29.52,SW,216,21.0,-999.0,14,-99.99,,,0.00,weatherlink.com 1.10,2013-06-21 21:53:00,
2013-06-21 16:08:00,66.6,14.0,29.52,SSW,208,22.0,-999.0,13,-99.99,,,0.00,weatherlink.com 1.10,2013-06-21 22:08:00,
2013-06-21 16:23:00,66.6,14.0,29.52,South,171,24.0,-999.0,13,-99.99,,,0.00,weatherlink.com 1.10,2013-06-21 22:23:00,
2013-06-21 16:39:00,67.5,15.0,29.52,South,176,16.0,-999.0,13,-99.99,,,0.00,weatherlink.com 1.10,2013-06-21 22:39:00,
2013-06-21 16:54:00,67.2,16.0,29.53,South,189,10.0,-999.0,14,-99.99,,,0.00,weatherlink.com 1.10,2013-06-21 22:54:00,
2013-06-21 17:09:00,68.6,16.0,29.52,SE,138,15.0,-999.0,13,-99.99,,,0.00,weatherlink.com 1.10,2013-06-21 23:09:00,
2013-06-21 17:24:00,66.6,16.0,29.52,SSW,209,9.0,-999.0,14,-99.99,,,0.00,weatherlink.com 1.10,2013-06-21 23:24:00,
2013-06-21 17:39:00,66.9,16.0,29.52,South,190,9.0,-999.0,14,-99.99,,,0.00,weatherlink.com 1.10,2013-06-21 23:39:00,
2013-06-21 17:54:00,67.1,16.0,29.51,South,191,14.0,-999.0,14,-99.99,,,0.00,weatherlink.com 1.10,2013-06-21 23:54:00,
2013-06-21 18:09:00,67.2,16.0,29.52,SSW,206,13.0,-999.0,14,-99.99,,,0.00,weatherlink.com 1.10,2013-06-22 00:09:00,
2013-06-21 18:25:00,67.1,18.0,29.52,West,264,5.0,-999.0,15,-99.99,,,0.00,weatherlink.com 1.10,2013-06-22 00:25:00,
2013-06-21 18:40:00,67.0,16.0,29.52,SSW,200,9.0,-999.0,14,-99.99,,,0.00,weatherlink.com 1.10,2013-06-22 00:40:00,
2013-06-21 18:55:00,66.5,17.0,29.52,SSW,202,9.0,-999.0,15,-99.99,,,0.00,weatherlink.com 1.10,2013-06-22 00:55:00,
2013-06-21 19:10:00,66.1,15.0,29.52,SSW,193,12.0,-999.0,14,-99.99,,,0.00,weatherlink.com 1.10,2013-06-22 01:10:00,
2013-06-21 19:25:00,65.5,15.0,29.52,SSW,212,12.0,-999.0,14,-99.99,,,0.00,weatherlink.com 1.10,2013-06-22 01:25:00,
2013-06-21 19:40:00,65.0,14.0,29.52,West,260,15.0,-999.0,14,-99.99,,,0.00,weatherlink.com 1.10,2013-06-22 01:40:00,
2013-06-21 19:56:00,63.7,15.0,29.52,SW,221,12.0,-999.0,15,-99.99,,,0.00,weatherlink.com 1.10,2013-06-22 01:56:00,
2013-06-21 20:11:00,63.1,16.0,29.52,SW,220,9.0,-999.0,16,-99.99,,,0.00,weatherlink.com 1.10,2013-06-22 02:11:00,
2013-06-21 20:26:00,62.1,15.0,29.52,SW,215,8.0,-999.0,16,-99.99,,,0.00,weatherlink.com 1.10,2013-06-22 02:26:00,
2013-06-21 20:41:00,61.4,16.0,29.52,WSW,241,9.0,-999.0,17,-99.99,,,0.00,weatherlink.com 1.10,2013-06-22 02:41:00,
2013-06-21 20:57:00,60.7,15.0,29.52,SW,225,8.0,-999.0,17,-99.99,,,0.00,weatherlink.com 1.10,2013-06-22 02:57:00,
2013-06-21 21:11:00,60.2,15.0,29.52,SW,235,14.0,-999.0,17,-99.99,,,0.00,weatherlink.com 1.10,2013-06-22 03:11:00,
2013-06-21 21:26:00,60.4,15.0,29.53,SW,227,13.0,-999.0,17,-99.99,,,0.00,weatherlink.com 1.10,2013-06-22 03:26:00,
2013-06-21 21:42:00,60.4,14.0,29.54,SSW,211,6.0,-999.0,16,-99.99,,,0.00,weatherlink.com 1.10,2013-06-22 03:42:00,
2013-06-21 21:57:00,60.0,13.0,29.54,SSW,199,7.0,-999.0,16,-99.99,,,0.00,weatherlink.com 1.10,2013-06-22 03:57:00,
2013-06-21 22:12:00,59.8,15.0,29.53,SSW,194,7.0,-999.0,17,-99.99,,,0.00,weatherlink.com 1.10,2013-06-22 04:12:00,
2013-06-21 22:27:00,59.0,14.0,29.53,SSW,199,7.0,-999.0,17,-99.99,,,0.00,weatherlink.com 1.10,2013-06-22 04:27:00,
2013-06-21 22:42:00,59.1,14.0,29.52,SSW,200,9.0,-999.0,17,-99.99,,,0.00,weatherlink.com 1.10,2013-06-22 04:42:00,
2013-06-21 22:57:00,58.6,15.0,29.52,South,184,11.0,-999.0,18,-99.99,,,0.00,weatherlink.com 1.10,2013-06-22 04:57:00,
2013-06-21 23:13:00,58.2,15.0,29.52,South,169,12.0,-999.0,18,-99.99,,,0.00,weatherlink.com 1.10,2013-06-22 05:13:00,
2013-06-21 23:28:00,58.4,14.0,29.52,South,176,17.0,-999.0,17,-99.99,,,0.00,weatherlink.com 1.10,2013-06-22 05:28:00,
2013-06-21 23:43:00,56.0,17.0,29.53,SW,231,13.0,-999.0,22,-99.99,,,0.00,weatherlink.com 1.10,2013-06-22 05:43:00,
2013-06-21 23:58:00,54.6,17.0,29.53,SW,215,7.0,-999.0,23,-99.99,,,0.00,weatherlink.com 1.10,2013-06-22 05:58:00,